Time;durP1;ratioP1;P1;durP2;ratioP2;P2;SDS_P1;SDS_P2;PMS_P1;PMS_P2;Temp;Humidity;BMP_temperature;BMP_pressure;BME280_temperature;BME280_humidity;BME280_pressure;Samples;Min_cycle;Max_cycle;Signal;HPM_P1;HPM_P2
2023/07/14 00:00:07;;;;;;;6.88;3.30;;;21.10;78.90;;;;;;4996378;28;20026;-85
2023/07/14 00:02:33;;;;;;;5.85;3.47;;;21.00;78.90;;;;;;4994868;28;20545;-88
2023/07/14 00:05:00;;;;;;;8.00;3.30;;;21.00;78.80;;;;;;5008189;28;20048;-86
2023/07/14 00:07:25;;;;;;;6.82;3.20;;;21.00;78.90;;;;;;5001337;28;20029;-86
2023/07/14 00:09:51;;;;;;;6.82;3.00;;;21.10;78.60;;;;;;5007207;28;20075;-86
2023/07/14 00:12:18;;;;;;;6.15;3.28;;;21.00;78.70;;;;;;5015168;28;20025;-85
2023/07/14 00:14:44;;;;;;;6.05;3.38;;;21.00;78.80;;;;;;5008664;28;20770;-86
2023/07/14 00:17:13;;;;;;;6.20;3.70;;;21.00;78.70;;;;;;5003278;28;20037;-86
2023/07/14 00:19:39;;;;;;;6.28;3.60;;;21.00;78.70;;;;;;5012949;28;20030;-87
2023/07/14 00:22:12;;;;;;;8.52;3.72;;;21.00;78.80;;;;;;4994440;28;20022;-86
2023/07/14 00:24:37;;;;;;;6.10;3.30;;;21.00;78.60;;;;;;5016353;28;20018;-86
2023/07/14 00:27:18;;;;;;;7.20;3.53;;;21.00;78.60;;;;;;5022255;28;20052;-84
2023/07/14 00:29:45;;;;;;;8.20;3.40;;;21.00;78.70;;;;;;4995602;28;20026;-87
2023/07/14 00:32:20;;;;;;;6.22;3.20;;;20.90;78.60;;;;;;4997024;28;20037;-86
2023/07/14 00:34:46;;;;;;;6.43;3.58;;;21.00;79.20;;;;;;4985161;28;20044;-85
2023/07/14 00:37:12;;;;;;;7.22;3.60;;;21.00;78.60;;;;;;5009418;28;20088;-86
2023/07/14 00:39:39;;;;;;;6.20;3.40;;;21.00;78.50;;;;;;4988653;28;20034;-84
2023/07/14 00:42:11;;;;;;;6.32;3.53;;;21.00;78.60;;;;;;4995360;28;20030;-87
2023/07/14 00:44:36;;;;;;;7.72;3.70;;;21.00;78.60;;;;;;4986284;28;20026;-86
2023/07/14 00:47:05;;;;;;;6.20;3.67;;;21.00;78.40;;;;;;4987015;28;20082;-85
2023/07/14 00:49:33;;;;;;;7.38;3.78;;;21.00;78.60;;;;;;5011088;28;20025;-85
2023/07/14 00:52:11;;;;;;;6.15;3.80;;;21.00;78.50;;;;;;5034154;28;20114;-86
2023/07/14 00:54:41;;;;;;;7.47;3.30;;;21.00;78.50;;;;;;5007754;28;20034;-86
2023/07/14 00:57:15;;;;;;;6.45;3.30;;;21.10;78.30;;;;;;5015232;28;20029;-85
2023/07/14 00:59:41;;;;;;;6.63;3.60;;;21.10;78.30;;;;;;5012718;28;20478;-86
2023/07/14 01:02:21;;;;;;;6.60;3.60;;;21.10;78.20;;;;;;5013737;28;20030;-86
2023/07/14 01:04:59;;;;;;;6.85;3.65;;;21.10;78.30;;;;;;4995341;28;20048;-86
2023/07/14 01:07:33;;;;;;;6.57;3.70;;;21.10;78.30;;;;;;4984028;28;20030;-83
2023/07/14 01:09:59;;;;;;;6.72;3.65;;;21.10;78.10;;;;;;5011680;28;20494;-86
2023/07/14 01:12:28;;;;;;;6.30;3.95;;;21.10;78.10;;;;;;5011619;28;20168;-85
2023/07/14 01:14:55;;;;;;;6.95;4.00;;;21.00;77.90;;;;;;5008584;28;20034;-86
2023/07/14 01:17:22;;;;;;;8.10;3.92;;;21.00;77.80;;;;;;4999670;28;20680;-85
2023/07/14 01:19:54;;;;;;;7.80;3.85;;;21.00;78.00;;;;;;4975429;28;20030;-87
2023/07/14 01:22:45;;;;;;;6.60;3.60;;;21.00;78.00;;;;;;4993030;28;20027;-84
2023/07/14 01:25:28;;;;;;;;;;;20.90;78.10;;;;;;4994600;28;20033;-84
2023/07/14 01:27:54;;;;;;;7.32;3.38;;;20.90;78.10;;;;;;4993432;28;20350;-86
2023/07/14 01:30:20;;;;;;;5.78;3.28;;;20.90;78.20;;;;;;5010605;28;20064;-85
2023/07/14 01:32:48;;;;;;;6.68;3.92;;;20.90;78.20;;;;;;4992694;28;20526;-85
2023/07/14 01:35:16;;;;;;;6.53;3.97;;;20.90;78.20;;;;;;4982111;28;20771;-85
2023/07/14 01:37:42;;;;;;;7.85;3.83;;;20.90;78.20;;;;;;5018552;28;20041;-86
2023/07/14 01:40:12;;;;;;;9.23;3.90;;;20.90;78.20;;;;;;5015264;28;20029;-86
2023/07/14 01:42:40;;;;;;;6.88;3.70;;;20.90;78.20;;;;;;5023628;28;20026;-86
2023/07/14 01:45:14;;;;;;;7.82;3.92;;;20.90;78.20;;;;;;4993385;28;20442;-83
2023/07/14 01:47:44;;;;;;;8.18;3.90;;;20.90;78.20;;;;;;4983983;28;20049;-86
2023/07/14 01:50:27;;;;;;;6.80;3.95;;;20.90;78.10;;;;;;5011215;28;20038;-86
2023/07/14 01:52:57;;;;;;;6.55;3.78;;;20.90;78.10;;;;;;4989734;28;20030;-86
2023/07/14 01:55:28;;;;;;;8.07;4.00;;;21.00;78.20;;;;;;4991428;28;20560;-86
2023/07/14 01:57:55;;;;;;;7.38;4.15;;;20.80;77.90;;;;;;4984515;28;20082;-86
2023/07/14 02:00:22;;;;;;;6.20;3.47;;;20.80;78.00;;;;;;5001092;28;20053;-84
2023/07/14 02:02:50;;;;;;;7.22;3.78;;;20.90;78.10;;;;;;4993265;28;20029;-86
2023/07/14 02:05:30;;;;;;;8.00;3.83;;;20.80;78.00;;;;;;5000182;28;20025;-85
2023/07/14 02:07:57;;;;;;;7.82;4.22;;;20.80;78.00;;;;;;4987514;28;20550;-86
2023/07/14 02:10:24;;;;;;;6.82;3.72;;;20.90;78.00;;;;;;4992817;28;20073;-85
2023/07/14 02:12:49;;;;;;;7.40;4.10;;;20.80;77.90;;;;;;4991587;28;20030;-86
2023/07/14 02:15:23;;;;;;;7.57;3.97;;;20.80;78.00;;;;;;4980913;28;20084;-86
2023/07/14 02:17:50;;;;;;;6.68;3.78;;;20.90;78.00;;;;;;5027527;28;20378;-85
2023/07/14 02:20:26;;;;;;;7.30;3.67;;;20.90;77.90;;;;;;5005026;28;20029;-84
2023/07/14 02:22:54;;;;;;;7.20;3.88;;;20.90;78.00;;;;;;5024271;28;20572;-86
2023/07/14 02:25:22;;;;;;;8.70;4.13;;;20.90;77.80;;;;;;4998376;28;20042;-85
2023/07/14 02:27:48;;;;;;;7.32;3.45;;;20.90;77.80;;;;;;5010223;28;20401;-85
2023/07/14 02:30:16;;;;;;;6.95;3.55;;;20.90;77.60;;;;;;5012178;28;20489;-86
2023/07/14 02:33:06;;;;;;;8.25;3.97;;;20.90;77.50;;;;;;5012090;28;20124;-86
2023/07/14 02:35:54;;;;;;;6.95;3.60;;;20.90;77.50;;;;;;5001134;28;20042;-85
2023/07/14 02:38:19;;;;;;;6.90;3.63;;;20.90;77.50;;;;;;5007169;28;20145;-88
2023/07/14 02:40:50;;;;;;;7.15;4.15;;;20.90;77.50;;;;;;5016804;28;20061;-87
2023/07/14 02:43:18;;;;;;;7.47;4.43;;;20.90;77.50;;;;;;5029445;28;20085;-87
2023/07/14 02:46:19;;;;;;;7.00;4.63;;;20.90;77.20;;;;;;5023016;28;20102;-86
2023/07/14 02:48:48;;;;;;;7.20;3.65;;;20.90;77.10;;;;;;5000977;28;20034;-85
2023/07/14 02:51:14;;;;;;;7.97;3.80;;;20.80;77.10;;;;;;5015721;28;20026;-86
2023/07/14 02:53:40;;;;;;;7.50;3.85;;;20.80;77.20;;;;;;5013851;28;20103;-87
2023/07/14 02:56:05;;;;;;;7.40;4.00;;;20.80;77.30;;;;;;4996674;28;20030;-87
2023/07/14 02:58:32;;;;;;;7.43;4.03;;;20.80;77.10;;;;;;5003890;28;20364;-86
2023/07/14 03:00:57;;;;;;;7.95;4.10;;;20.80;77.30;;;;;;5015425;28;20025;-86
2023/07/14 03:03:23;;;;;;;7.07;4.00;;;20.80;77.40;;;;;;5006618;28;20052;-85
2023/07/14 03:05:51;;;;;;;6.95;4.13;;;20.80;77.40;;;;;;5006793;28;20533;-86
2023/07/14 03:08:17;;;;;;;8.02;4.43;;;20.80;77.40;;;;;;5015774;28;20493;-87
2023/07/14 03:10:45;;;;;;;8.82;4.65;;;20.70;77.30;;;;;;5015992;28;20041;-87
2023/07/14 03:13:11;;;;;;;7.93;4.20;;;20.70;77.40;;;;;;5005072;28;20267;-85
2023/07/14 03:15:37;;;;;;;9.70;4.40;;;20.70;77.40;;;;;;5011969;28;20080;-87
2023/07/14 03:18:03;;;;;;;5.97;3.80;;;20.70;77.40;;;;;;5004282;28;20405;-87
2023/07/14 03:20:29;;;;;;;8.30;4.68;;;20.70;77.30;;;;;;5011043;28;20026;-88
2023/07/14 03:22:54;;;;;;;6.95;4.05;;;20.70;77.40;;;;;;4996942;28;20086;-86
2023/07/14 03:25:20;;;;;;;7.60;4.30;;;20.70;77.50;;;;;;5018823;28;20486;-86
2023/07/14 03:27:46;;;;;;;7.60;4.25;;;20.70;77.40;;;;;;4987578;28;20027;-86
2023/07/14 03:30:12;;;;;;;6.68;4.03;;;20.70;77.50;;;;;;5008937;28;20037;-86
2023/07/14 03:32:38;;;;;;;8.30;4.30;;;20.70;77.50;;;;;;4993012;28;20037;-86
2023/07/14 03:35:04;;;;;;;8.70;4.75;;;20.70;77.50;;;;;;5001994;28;20030;-87
2023/07/14 03:37:29;;;;;;;9.10;4.15;;;20.70;77.50;;;;;;5022928;28;20064;-87
2023/07/14 03:39:55;;;;;;;10.98;4.20;;;20.70;77.50;;;;;;5013007;28;20413;-86
2023/07/14 03:42:20;;;;;;;7.13;4.22;;;20.70;77.50;;;;;;5001367;28;20026;-87
2023/07/14 03:44:46;;;;;;;9.75;4.60;;;20.70;77.50;;;;;;5008914;28;20030;-85
2023/07/14 03:47:11;;;;;;;8.05;3.65;;;20.70;77.60;;;;;;5015264;28;20018;-85
2023/07/14 03:49:37;;;;;;;7.90;4.20;;;20.70;77.60;;;;;;4998223;28;20037;-86
2023/07/14 03:52:02;;;;;;;7.28;3.88;;;20.70;77.60;;;;;;5005034;28;20029;-86
2023/07/14 03:54:29;;;;;;;7.07;4.03;;;20.70;77.60;;;;;;5011051;28;20064;-85
2023/07/14 03:56:54;;;;;;;9.80;4.20;;;20.80;77.60;;;;;;4993040;28;20729;-86
2023/07/14 03:59:20;;;;;;;7.65;3.88;;;20.80;77.70;;;;;;5011539;28;20109;-85
2023/07/14 04:01:46;;;;;;;8.52;3.92;;;20.80;77.70;;;;;;4988685;28;20053;-86
2023/07/14 04:04:15;;;;;;;9.05;4.00;;;20.80;77.60;;;;;;5015610;28;20493;-85
2023/07/14 04:06:41;;;;;;;8.32;3.60;;;20.80;77.60;;;;;;5013571;28;20031;-86
2023/07/14 04:09:07;;;;;;;7.28;3.60;;;20.80;77.50;;;;;;4977447;28;20034;-84
2023/07/14 04:11:34;;;;;;;7.88;3.67;;;20.80;77.50;;;;;;4995518;28;20022;-85
2023/07/14 04:14:01;;;;;;;7.30;3.60;;;20.80;78.00;;;;;;5016011;28;20440;-84
2023/07/14 04:16:26;;;;;;;8.32;3.60;;;20.80;77.50;;;;;;4995877;28;20466;-85
2023/07/14 04:18:52;;;;;;;8.07;4.03;;;20.80;77.60;;;;;;4976779;28;20109;-86
2023/07/14 04:21:24;;;;;;;7.32;3.65;;;20.80;77.40;;;;;;4989677;28;20076;-86
2023/07/14 04:23:50;;;;;;;8.32;3.78;;;20.70;77.50;;;;;;5011730;28;20052;-86
2023/07/14 04:26:15;;;;;;;9.48;4.25;;;20.70;77.50;;;;;;4996067;28;20026;-85
2023/07/14 04:28:41;;;;;;;10.15;4.20;;;20.70;77.70;;;;;;4993102;28;20125;-86
2023/07/14 04:31:06;;;;;;;7.65;3.67;;;20.70;77.70;;;;;;4976341;28;20022;-85
2023/07/14 04:33:32;;;;;;;7.38;3.80;;;20.70;77.80;;;;;;4976783;28;20508;-86
2023/07/14 04:35:59;;;;;;;7.43;3.50;;;20.70;77.90;;;;;;4993488;28;20030;-85
2023/07/14 04:38:25;;;;;;;8.35;4.55;;;20.70;77.90;;;;;;5001032;28;20026;-85
2023/07/14 04:40:51;;;;;;;8.98;4.15;;;20.70;77.90;;;;;;5013467;28;20056;-86
2023/07/14 04:43:18;;;;;;;9.07;4.20;;;20.70;78.00;;;;;;5025282;28;20026;-85
2023/07/14 04:45:45;;;;;;;8.90;4.00;;;20.70;78.00;;;;;;4983667;28;20038;-87
2023/07/14 04:48:16;;;;;;;8.15;3.83;;;20.60;78.00;;;;;;5032586;28;20032;-81
2023/07/14 04:50:45;;;;;;;9.13;3.70;;;20.60;78.00;;;;;;5033726;28;20041;-84
2023/07/14 04:53:11;;;;;;;7.68;3.85;;;20.60;78.00;;;;;;5005862;28;20572;-88
2023/07/14 05:08:53;;;;;;;9.40;4.28;;;20.70;78.20;;;;;;4917608;29;20516;-86
2023/07/14 06:55:40;;;;;;;8.73;3.45;;;20.90;78.20;;;;;;4991887;26;20054;-84
2023/07/14 06:58:06;;;;;;;7.40;3.67;;;20.80;78.10;;;;;;4995772;28;20475;-82
2023/07/14 07:00:33;;;;;;;7.72;3.40;;;20.90;78.00;;;;;;4997547;28;20475;-86
2023/07/14 07:03:00;;;;;;;7.50;3.28;;;21.00;77.90;;;;;;4972623;28;20070;-83
2023/07/14 07:05:25;;;;;;;7.25;3.15;;;21.00;77.90;;;;;;4971441;28;20033;-85
2023/07/14 07:07:52;;;;;;;6.47;3.47;;;21.00;77.90;;;;;;4992620;28;20021;-85
2023/07/14 07:10:18;;;;;;;8.20;2.83;;;21.00;77.90;;;;;;4971974;28;20022;-85
2023/07/14 07:12:44;;;;;;;8.50;3.20;;;21.00;77.80;;;;;;4956662;28;20034;-84
2023/07/14 07:17:46;;;;;;;6.05;3.08;;;21.10;77.60;;;;;;4999154;23;20049;-82
2023/07/14 07:20:12;;;;;;;7.25;3.17;;;21.40;77.70;;;;;;5004118;28;20030;-82
2023/07/14 07:22:40;;;;;;;9.00;2.75;;;21.10;77.30;;;;;;5014104;28;20030;-82
2023/07/14 08:24:41;;;;;;;38.65;8.40;;;21.30;76.00;;;;;;4996625;28;20415;-84
2023/07/14 08:27:07;;;;;;;33.30;8.07;;;21.30;76.30;;;;;;4973759;28;20054;-85
2023/07/14 08:29:32;;;;;;;36.75;7.82;;;21.30;76.10;;;;;;4977242;28;20080;-87
2023/07/14 08:31:58;;;;;;;30.50;7.03;;;21.40;76.20;;;;;;4978235;28;20035;-84
2023/07/14 08:34:26;;;;;;;31.67;7.05;;;21.40;76.20;;;;;;4990193;28;20037;-84
2023/07/14 08:36:52;;;;;;;32.30;6.45;;;21.40;76.20;;;;;;4986151;28;20117;-83
2023/07/14 08:39:18;;;;;;;28.02;6.07;;;21.40;76.20;;;;;;4984926;28;20545;-84
2023/07/14 08:41:46;;;;;;;24.17;6.50;;;21.40;76.30;;;;;;4983289;28;20060;-82
2023/07/14 08:44:38;;;;;;;26.77;6.57;;;21.40;76.30;;;;;;4984190;28;20499;-83
2023/07/14 08:47:14;;;;;;;22.77;6.45;;;21.50;76.30;;;;;;4978476;28;20921;-84
2023/07/14 08:49:58;;;;;;;29.20;5.82;;;21.50;76.20;;;;;;4983633;28;20036;-84
2023/07/14 08:52:33;;;;;;;22.83;5.80;;;21.60;76.20;;;;;;4974965;28;20031;-84
2023/07/14 08:55:05;;;;;;;22.50;5.93;;;21.60;76.20;;;;;;4981676;28;20569;-84
2023/07/14 08:57:38;;;;;;;25.75;5.90;;;21.60;76.10;;;;;;4988981;28;20039;-84
2023/07/14 09:00:06;;;;;;;21.13;6.05;;;21.70;76.10;;;;;;4975230;28;20030;-84
2023/07/14 09:02:50;;;;;;;22.05;5.97;;;21.70;76.10;;;;;;4974002;28;20406;-84
2023/07/14 09:05:27;;;;;;;19.90;5.43;;;21.70;76.10;;;;;;4974835;28;20049;-84
2023/07/14 09:07:54;;;;;;;17.63;5.22;;;21.70;76.10;;;;;;5000350;28;20026;-84
2023/07/14 09:10:39;;;;;;;17.55;4.93;;;21.70;76.10;;;;;;4980325;28;20026;-81
2023/07/14 09:13:35;;;;;;;16.88;4.97;;;21.80;76.30;;;;;;4973706;28;20035;-82
2023/07/14 09:16:02;;;;;;;20.35;5.50;;;21.80;76.30;;;;;;4977768;28;20034;-84
2023/07/14 09:18:36;;;;;;;22.05;5.43;;;21.80;76.40;;;;;;4986319;28;20434;-83
2023/07/14 09:21:14;;;;;;;18.08;4.97;;;21.70;76.50;;;;;;4981995;28;20035;-84
2023/07/14 09:24:08;;;;;;;15.73;4.70;;;21.70;76.60;;;;;;4985931;28;20029;-84
2023/07/14 09:26:39;;;;;;;14.98;4.75;;;21.70;76.70;;;;;;4981562;28;20772;-84
2023/07/14 09:29:18;;;;;;;18.67;4.65;;;21.70;76.70;;;;;;4980202;28;20027;-85
2023/07/14 09:31:55;;;;;;;16.15;5.10;;;21.70;76.80;;;;;;4994955;28;20034;-84
2023/07/14 09:34:37;;;;;;;16.35;5.43;;;21.70;76.80;;;;;;4978876;28;20104;-85
2023/07/14 09:37:22;;;;;;;16.63;5.05;;;21.80;76.80;;;;;;5006266;28;20033;-84
2023/07/14 09:39:52;;;;;;;14.52;4.65;;;21.70;76.90;;;;;;4986768;28;20113;-85
2023/07/14 09:42:31;;;;;;;15.48;4.60;;;21.80;76.90;;;;;;4977526;28;20061;-86
2023/07/14 10:11:52;;;;;;;11.05;3.95;;;21.80;77.30;;;;;;4977717;28;20154;-82
2023/07/14 10:14:36;;;;;;;11.68;3.75;;;22.10;77.60;;;;;;4957298;28;20113;-81
2023/07/14 10:17:03;;;;;;;13.48;4.15;;;21.80;77.50;;;;;;4981734;28;20026;-82
2023/07/14 10:19:38;;;;;;;12.65;4.20;;;21.80;77.60;;;;;;4992246;28;20015;-81
2023/07/14 10:22:12;;;;;;;11.57;4.22;;;21.70;77.60;;;;;;4994241;28;20028;-81
2023/07/14 10:24:38;;;;;;;10.40;3.60;;;21.80;77.70;;;;;;4976957;28;20034;-82
2023/07/14 10:27:27;;;;;;;10.98;3.80;;;21.80;77.60;;;;;;4985675;28;20026;-81
2023/07/14 10:30:32;;;;;;;12.00;3.95;;;21.80;77.60;;;;;;4984038;28;20065;-81
2023/07/14 10:33:00;;;;;;;9.57;3.22;;;21.80;77.60;;;;;;4981448;28;20402;-81
2023/07/14 10:35:33;;;;;;;9.82;4.22;;;21.80;77.50;;;;;;4997239;28;20552;-80
2023/07/14 10:38:33;;;;;;;10.40;3.97;;;21.90;77.40;;;;;;4986326;28;20037;-81
2023/07/14 10:41:02;;;;;;;9.52;3.67;;;21.90;77.40;;;;;;4979023;28;20041;-79
2023/07/14 10:43:39;;;;;;;10.23;3.70;;;21.80;77.90;;;;;;4994409;28;20030;-82
2023/07/14 10:46:21;;;;;;;9.25;3.47;;;21.90;77.50;;;;;;4978071;28;20030;-83
2023/07/14 10:48:57;;;;;;;9.23;3.58;;;21.80;77.50;;;;;;4978480;28;20034;-82
2023/07/14 10:51:41;;;;;;;10.25;3.38;;;21.90;77.70;;;;;;4955618;28;20031;-83
2023/07/14 10:54:16;;;;;;;9.65;3.83;;;21.80;77.80;;;;;;4992481;28;20022;-85
2023/07/14 10:57:09;;;;;;;10.35;3.72;;;21.80;77.90;;;;;;4974998;28;20110;-83
2023/07/14 10:59:48;;;;;;;9.18;3.60;;;21.70;78.00;;;;;;4955205;28;20035;-82
2023/07/14 11:02:21;;;;;;;10.05;3.97;;;21.70;78.10;;;;;;4975779;28;20019;-83
2023/07/14 11:05:11;;;;;;;9.30;3.05;;;21.60;78.10;;;;;;4974193;28;20049;-82
2023/07/14 11:07:36;;;;;;;;;;;21.70;78.30;;;;;;4974181;28;20034;-83
2023/07/14 11:10:16;;;;;;;8.70;3.38;;;21.70;78.40;;;;;;4972976;28;19952;-83
2023/07/14 11:13:18;;;;;;;8.85;3.63;;;21.60;78.40;;;;;;4970676;28;20050;-83
2023/07/14 11:15:55;;;;;;;8.18;3.65;;;21.60;78.50;;;;;;4982297;28;20060;-83
2023/07/14 11:18:43;;;;;;;10.00;3.10;;;21.60;79.00;;;;;;4980010;28;20118;-83
2023/07/14 11:21:12;;;;;;;8.38;3.15;;;21.60;78.50;;;;;;4991240;28;20030;-83
2023/07/14 11:23:44;;;;;;;9.43;3.17;;;21.60;78.50;;;;;;4973402;28;20026;-82
2023/07/14 11:28:59;;;;;;;8.43;2.95;;;21.60;78.60;;;;;;5307960;22;20049;-82
2023/07/14 11:31:28;;;;;;;9.05;3.08;;;21.60;78.60;;;;;;5027562;28;20026;-83
2023/07/14 11:34:08;;;;;;;7.97;3.30;;;21.60;78.70;;;;;;5009603;28;20022;-83
2023/07/14 11:36:58;;;;;;;8.93;3.33;;;21.60;79.20;;;;;;5027432;28;20041;-83
2023/07/14 11:39:57;;;;;;;8.82;3.17;;;21.60;78.70;;;;;;5028734;28;20037;-84
2023/07/14 11:42:35;;;;;;;7.80;3.17;;;21.60;78.70;;;;;;5009111;28;20026;-83
2023/07/14 11:45:05;;;;;;;10.48;3.53;;;21.50;78.70;;;;;;5009516;28;20025;-83
2023/07/14 11:47:37;;;;;;;8.38;3.50;;;21.60;78.80;;;;;;5028747;28;20025;-83
2023/07/14 11:50:22;;;;;;;8.07;3.08;;;21.60;78.90;;;;;;5029896;28;20030;-83
2023/07/14 11:52:58;;;;;;;8.30;3.08;;;21.60;78.90;;;;;;5025456;28;20033;-83
2023/07/14 12:09:19;;;;;;;8.25;3.10;;;21.60;78.70;;;;;;5010320;28;20017;-83
2023/07/14 12:19:04;;;;;;;6.13;2.80;;;21.50;78.60;;;;;;4934220;29;20387;-81
2023/07/14 12:21:46;;;;;;;8.25;3.47;;;21.70;78.50;;;;;;4949363;28;20172;-80
2023/07/14 12:24:17;;;;;;;10.48;2.80;;;21.70;78.50;;;;;;4990936;28;20056;-79
2023/07/14 12:26:51;;;;;;;;;;;21.60;78.40;;;;;;5002342;28;20116;-84
2023/07/14 12:29:19;;;;;;;7.03;2.70;;;21.70;78.40;;;;;;4997288;28;20358;-80
2023/07/14 12:31:56;;;;;;;6.90;2.90;;;21.60;78.40;;;;;;4999027;28;20025;-87
2023/07/14 12:34:24;;;;;;;8.52;3.28;;;21.60;78.50;;;;;;5005190;28;20026;-87
2023/07/14 12:36:51;;;;;;;7.97;2.90;;;21.60;78.70;;;;;;5009412;28;20497;-87
2023/07/14 12:39:16;;;;;;;7.97;3.20;;;21.60;78.70;;;;;;5001443;28;20037;-86
2023/07/14 12:41:47;;;;;;;7.05;3.05;;;21.60;78.80;;;;;;5001082;28;20429;-87
2023/07/14 12:44:28;;;;;;;7.32;2.92;;;21.60;78.90;;;;;;5000690;28;20022;-86
2023/07/14 12:46:55;;;;;;;7.65;2.90;;;21.60;79.00;;;;;;5016858;28;20467;-86
2023/07/14 12:49:29;;;;;;;6.88;2.60;;;21.60;79.10;;;;;;4996780;28;20030;-85
2023/07/14 12:51:55;;;;;;;6.88;2.95;;;21.50;79.10;;;;;;4981848;28;20467;-87
2023/07/14 12:54:26;;;;;;;6.75;2.85;;;21.50;79.10;;;;;;5000128;28;20029;-87
2023/07/14 12:56:54;;;;;;;7.65;2.90;;;21.50;79.10;;;;;;5019084;28;20037;-85
2023/07/14 12:59:19;;;;;;;7.00;3.03;;;21.60;79.20;;;;;;5001305;28;20084;-87
2023/07/14 13:01:46;;;;;;;7.00;2.88;;;21.50;79.20;;;;;;4992443;28;20031;-84
2023/07/14 13:04:13;;;;;;;7.20;2.90;;;21.50;79.30;;;;;;4993143;28;20030;-85
2023/07/14 13:06:41;;;;;;;6.10;2.58;;;21.50;79.30;;;;;;4999305;28;20228;-85
2023/07/14 13:09:10;;;;;;;10.15;2.90;;;21.60;79.40;;;;;;4998047;28;20025;-87
2023/07/14 13:11:38;;;;;;;7.00;3.10;;;21.50;79.30;;;;;;4984421;28;20026;-85
2023/07/14 13:14:04;;;;;;;7.93;3.38;;;21.50;79.30;;;;;;4979401;28;20566;-86
2023/07/14 13:16:37;;;;;;;8.15;2.85;;;21.60;79.40;;;;;;4996192;28;20052;-84
2023/07/14 13:19:04;;;;;;;7.57;3.15;;;21.50;79.30;;;;;;5016438;28;20022;-85
2023/07/14 13:21:41;;;;;;;7.55;2.65;;;21.50;79.40;;;;;;5016397;28;20026;-86
2023/07/14 13:24:28;;;;;;;6.88;2.83;;;21.50;79.30;;;;;;4991279;28;20078;-86
2023/07/14 13:27:08;;;;;;;7.35;3.05;;;21.50;79.40;;;;;;5008895;28;20030;-84
2023/07/14 13:29:36;;;;;;;6.55;2.70;;;21.50;79.40;;;;;;4978346;28;20042;-85
2023/07/14 13:32:18;;;;;;;7.20;2.47;;;21.50;79.50;;;;;;4980825;28;20022;-86
2023/07/14 13:34:48;;;;;;;6.60;2.70;;;21.50;79.40;;;;;;4996559;28;20057;-84
2023/07/14 13:37:13;;;;;;;6.68;2.90;;;21.50;80.00;;;;;;5013387;28;20084;-85
2023/07/14 13:39:41;;;;;;;6.45;2.40;;;21.50;79.40;;;;;;4996601;28;20482;-85
2023/07/14 13:42:36;;;;;;;6.32;2.90;;;21.60;79.40;;;;;;4996444;28;20097;-86
2023/07/14 13:45:09;;;;;;;7.13;3.00;;;21.60;79.30;;;;;;4995566;28;20033;-86
2023/07/14 13:47:44;;;;;;;7.18;2.67;;;21.60;79.20;;;;;;4994573;28;20030;-85
2023/07/14 13:50:10;;;;;;;7.82;2.80;;;21.60;79.20;;;;;;4975995;28;20038;-83
2023/07/14 13:52:36;;;;;;;5.90;2.40;;;21.60;79.10;;;;;;4976529;28;20030;-85
2023/07/14 13:55:13;;;;;;;6.75;2.75;;;21.60;79.10;;;;;;5010488;28;21236;-82
2023/07/14 13:57:39;;;;;;;6.97;2.65;;;21.60;79.10;;;;;;4995275;28;20057;-87
2023/07/14 14:00:08;;;;;;;7.10;2.50;;;21.60;79.10;;;;;;5011124;28;20033;-84
2023/07/14 14:02:45;;;;;;;7.28;2.67;;;21.60;79.10;;;;;;4994425;28;20486;-82
2023/07/14 14:05:23;;;;;;;7.95;2.90;;;21.60;79.10;;;;;;4987272;28;20562;-86
2023/07/14 14:07:51;;;;;;;7.63;2.50;;;21.60;79.10;;;;;;4992778;28;20101;-84
2023/07/14 14:10:19;;;;;;;6.88;2.88;;;21.60;79.20;;;;;;4992782;28;20505;-84
2023/07/14 14:12:45;;;;;;;7.72;2.72;;;21.50;79.30;;;;;;4992761;28;20514;-83
2023/07/14 14:15:33;;;;;;;6.28;2.38;;;21.50;79.50;;;;;;4990599;28;20028;-82
2023/07/14 14:18:03;;;;;;;5.57;2.42;;;21.50;79.60;;;;;;5001481;28;20057;-80
2023/07/14 14:20:33;;;;;;;5.28;2.20;;;21.50;79.70;;;;;;4996975;28;20076;-84
2023/07/14 14:23:04;;;;;;;6.50;2.33;;;21.40;79.70;;;;;;5008887;28;20383;-81
2023/07/14 14:25:30;;;;;;;8.48;2.58;;;21.50;79.80;;;;;;4999956;28;20057;-81
2023/07/14 14:27:56;;;;;;;6.30;2.28;;;21.40;79.80;;;;;;5009572;28;20041;-83
2023/07/14 14:30:28;;;;;;;17.23;3.97;;;21.40;79.90;;;;;;4993343;28;20026;-83
2023/07/14 14:32:55;;;;;;;;;;;21.40;79.60;;;;;;4990226;28;20404;-82
2023/07/14 14:35:35;;;;;;;11.70;3.42;;;21.40;79.50;;;;;;4989892;28;20368;-82
2023/07/14 14:38:12;;;;;;;19.27;3.53;;;21.40;79.60;;;;;;4973947;28;20030;-82
2023/07/14 14:40:38;;;;;;;14.55;3.70;;;21.40;79.50;;;;;;4973963;28;20505;-83
2023/07/14 14:43:18;;;;;;;16.67;3.75;;;21.40;79.50;;;;;;4992867;28;20033;-81
2023/07/14 14:45:45;;;;;;;17.17;3.72;;;21.30;79.50;;;;;;4996324;28;20026;-83
2023/07/14 14:48:26;;;;;;;15.73;3.50;;;21.40;79.60;;;;;;5009249;28;20021;-83
2023/07/14 14:50:53;;;;;;;17.98;3.78;;;21.40;79.60;;;;;;5010831;28;20034;-83
2023/07/14 14:53:22;;;;;;;16.67;4.45;;;21.40;79.60;;;;;;4992310;28;20034;-83
2023/07/14 14:55:50;;;;;;;17.70;3.75;;;21.40;80.20;;;;;;4991704;28;20064;-82
2023/07/14 14:58:19;;;;;;;9.68;3.00;;;21.30;79.60;;;;;;4992362;28;20038;-82
2023/07/14 15:00:54;;;;;;;11.88;3.72;;;21.40;79.70;;;;;;4992573;28;20064;-83
2023/07/14 15:03:20;;;;;;;14.00;3.53;;;21.40;79.80;;;;;;4980160;28;20450;-81
2023/07/14 15:05:46;;;;;;;14.25;3.38;;;21.40;79.80;;;;;;4983674;28;20030;-83
2023/07/14 15:08:12;;;;;;;12.27;3.20;;;21.40;79.80;;;;;;4985244;28;20069;-81
2023/07/14 15:10:38;;;;;;;7.47;2.75;;;21.40;79.80;;;;;;4972756;28;20034;-83
2023/07/14 15:13:04;;;;;;;9.90;3.30;;;21.40;79.80;;;;;;4991741;28;20026;-81
2023/07/14 15:15:33;;;;;;;13.50;3.40;;;21.40;79.80;;;;;;4988156;28;20030;-83
2023/07/14 15:17:59;;;;;;;11.57;3.03;;;21.40;79.70;;;;;;4990359;28;20026;-83
2023/07/14 15:20:26;;;;;;;10.60;3.05;;;21.40;79.60;;;;;;4972232;28;20034;-82
2023/07/14 15:22:52;;;;;;;10.02;3.03;;;21.40;79.50;;;;;;4988521;28;20023;-82
2023/07/14 15:25:19;;;;;;;12.70;3.15;;;21.50;79.50;;;;;;5006923;28;21017;-80
2023/07/14 15:27:46;;;;;;;11.52;3.08;;;21.40;79.40;;;;;;4991839;28;20014;-85
2023/07/14 15:30:26;;;;;;;11.38;3.22;;;21.40;79.40;;;;;;4991539;28;20026;-82
2023/07/14 15:32:54;;;;;;;8.88;2.97;;;21.40;79.40;;;;;;4974709;28;20081;-81
2023/07/14 15:35:25;;;;;;;10.48;3.22;;;21.50;79.40;;;;;;4997148;28;20051;-82
2023/07/14 15:37:52;;;;;;;10.63;2.97;;;21.50;79.40;;;;;;5008829;28;20532;-83
2023/07/14 15:40:20;;;;;;;10.98;3.40;;;21.50;79.40;;;;;;4999573;28;20540;-84
2023/07/14 15:42:47;;;;;;;7.57;3.03;;;21.50;79.40;;;;;;4994095;28;20029;-83
2023/07/14 15:45:26;;;;;;;8.32;2.75;;;21.40;79.50;;;;;;4988558;28;20428;-84
2023/07/14 15:47:53;;;;;;;7.93;2.58;;;21.40;79.50;;;;;;4989906;28;20034;-85
2023/07/14 15:50:22;;;;;;;10.23;2.60;;;21.40;79.60;;;;;;5005098;28;20029;-84
2023/07/14 15:52:52;;;;;;;7.00;2.58;;;21.40;79.70;;;;;;5016587;28;20436;-83
2023/07/14 15:55:21;;;;;;;7.28;2.50;;;21.40;79.80;;;;;;4991872;28;20650;-82
2023/07/14 15:57:46;;;;;;;8.98;2.92;;;21.40;79.90;;;;;;5015025;28;20033;-81
2023/07/14 16:00:18;;;;;;;7.75;2.45;;;21.30;79.90;;;;;;5000266;28;20029;-84
2023/07/14 16:02:46;;;;;;;7.78;2.97;;;21.30;79.90;;;;;;5017880;28;20064;-82
2023/07/14 16:05:13;;;;;;;9.25;2.78;;;21.30;80.00;;;;;;4999219;28;20029;-82
2023/07/14 16:07:39;;;;;;;7.22;2.90;;;21.30;80.10;;;;;;5017219;28;20076;-84
2023/07/14 16:10:07;;;;;;;6.13;2.70;;;21.30;80.10;;;;;;5009489;28;20529;-83
2023/07/14 16:12:33;;;;;;;6.78;2.53;;;21.30;80.10;;;;;;4994562;28;20026;-83
2023/07/14 16:14:59;;;;;;;6.57;2.83;;;21.30;80.20;;;;;;4985830;28;20522;-83
2023/07/14 16:17:25;;;;;;;6.30;2.67;;;21.30;80.20;;;;;;5009241;28;20466;-82
2023/07/14 16:19:51;;;;;;;7.55;2.65;;;21.30;80.20;;;;;;4980796;28;20502;-83
2023/07/14 16:22:20;;;;;;;6.80;2.60;;;21.30;80.30;;;;;;5002851;28;20080;-81
2023/07/14 16:24:47;;;;;;;7.10;2.83;;;21.30;80.30;;;;;;4997994;28;20037;-83
2023/07/14 16:27:33;;;;;;;7.80;2.70;;;21.30;80.30;;;;;;5014617;28;20024;-84
2023/07/14 16:29:59;;;;;;;6.13;2.45;;;21.30;80.30;;;;;;5015786;28;20524;-83
2023/07/14 16:32:24;;;;;;;5.10;2.38;;;21.30;80.40;;;;;;4996067;28;20026;-84
2023/07/14 16:34:50;;;;;;;6.32;2.78;;;21.20;80.30;;;;;;4998163;28;20034;-83
2023/07/14 16:37:18;;;;;;;6.15;2.40;;;21.30;80.40;;;;;;4998672;28;20104;-83
2023/07/14 16:39:45;;;;;;;6.32;2.58;;;21.20;80.30;;;;;;4994923;28;20415;-83
2023/07/14 16:42:14;;;;;;;5.78;2.25;;;21.20;80.30;;;;;;4978912;28;20381;-84
2023/07/14 16:44:42;;;;;;;8.02;3.00;;;21.20;80.30;;;;;;4992730;28;20030;-84
2023/07/14 16:47:09;;;;;;;6.00;2.50;;;21.20;80.30;;;;;;5000306;28;20079;-85
2023/07/14 16:49:35;;;;;;;7.63;2.22;;;21.30;80.90;;;;;;5015051;28;20017;-85
2023/07/14 16:52:01;;;;;;;7.45;2.75;;;21.30;80.30;;;;;;4997382;28;20113;-83
2023/07/14 16:54:35;;;;;;;7.50;2.53;;;21.30;80.10;;;;;;5014478;28;20024;-83